Historyczne dane pomiarowe

Dodano dane terminowe – wersja testowa.

Dane z okresu 1951-2019

Wersja bazy: 1.34 [2019-03-16, lista zmian], aktualizacja planowana na 2019-04-15

Dane meteo z obszaru Polski uzyskane na podstawie danych udostępnionych przez Instytut Meteorologii i Gospodarki Wodnej – Państwowy Instytut Badawczy.

 

Wybierz Datę:    

       

TemperaturaWilgotnośćWiatrCiśnienieOpadyŚniegCzas trwania zjawisk
 Stacja t tx tn tng RH VA  wxwx mslp ppp RRR   cm mm wxwxwxwxwxwxwx
1962-02-25 -4.9 -3.0 -9.4 -7.9-- 7.7 3.7---- 4.2-- 18---------
1962-02-26 -3.7 -2.2 -5.9 -3.0-- 8.0 3.7---- 3.6-- 20---------
1962-02-27 -8.7 -3.9-12.8 -4.7-- 5.0 1.0---- 0.0-- 20---------
1962-02-28 -8.3 -5.9-13.8-13.1-- 5.7 1.7---- 0.0-- 20---------
1962-03-01 -8.9 -4.0-11.6 -5.8-- 4.3 1.3---- 0.0-- 20---------
1962-03-02 -7.7 -3.5-17.2-17.8-- 7.7 0.3---- 0.0-- 18---------
1962-03-03 -3.9 -0.1 -8.5 -8.8-- 7.3 1.3---- 0.0-- 18---------
1962-03-04 0.3 2.5 -4.7 -5.4-- 7.7 3.3---- 4.1-- 18---------
1962-03-05 1.2 1.6 0.6 0.6-- 8.0 2.0---- 5.7-- 16---------
1962-03-06 0.8 4.3 -1.5 0.8-- 8.0 6.0---- 1.2-- 8---------
1962-03-07 -2.8 -0.6 -4.5 -2.3-- 8.0 2.7---- 0.8------------
1962-03-08 -3.2 0.2 -8.5 -8.8-- 0.7 2.3---- 0.0------------
1962-03-09 -3.6 0.1 -5.4 -5.0-- 3.0 2.3---- 0.0------------
1962-03-10 -2.4 0.6 -6.9 -7.8-- 5.3 11.0---- 0.0------------
1962-03-11 1.4 2.8 -2.3 -2.3-- 8.0 5.7---- 0.0------------
1962-03-12 0.9 2.5 0.3 -0.1-- 8.0 3.3---- 3.1------------
1962-03-13 -3.9 0.9 -6.4 -0.9-- 8.0 6.0---- 5.8-- 3---------
1962-03-14 -7.2 -2.9 -8.8 -8.5-- 1.3 5.7---- 0.0-- 8---------
1962-03-15 -6.8 -3.5-12.0-13.4-- 8.0 0.3---- 0.0-- 8---------
1962-03-16 -6.6 -4.9 -7.5 -7.6-- 8.0 6.7---- 9.3-- 8---------
1962-03-17 -5.0 -4.0 -7.5 -5.9-- 8.0 7.7---- 5.7-- 28---------
1962-03-18 -4.9 -1.4 -8.1 -3.0-- 1.0 5.0---- 0.0-- 35---------
1962-03-19 -8.0 -1.4-14.1-15.7-- 3.7 2.3---- 0.0-- 33---------
1962-03-20 -8.2 0.0-13.8-16.0-- 2.7 0.7---- 0.0-- 30---------
1962-03-21 -8.3 -2.0-15.8-17.7-- 2.3 1.3---- 0.0-- 28---------
1962-03-22 -4.6 0.5-13.8-14.0-- 7.7 2.0---- 1.7-- 28---------
1962-03-23 -1.4 0.4 -5.1 -6.3-- 8.0 2.3---- 7.1-- 25---------
1962-03-24 -5.7 0.4 -9.7 -2.2-- 4.7 2.0---- 0.8-- 30---------
1962-03-25 -9.0 0.8-15.3-17.2-- 2.7 0.7---- 0.0-- 28---------
1962-03-26-10.0 0.7-19.2-18.9-- 0.0 0.3---- 0.0-- 27---------
178.3 ms

 

Źródłem pochodzenia danych jest Instytut Meteorologii i Gospodarki Wodnej – Państwowy Instytut Badawczy. Dane Instytutu Meteorologii i Gospodarki Wodnej – Państwowego Instytutu Badawczego zostały przetworzone.

Dane źródłowe można odnaleźć na stronie https://dane.imgw.pl